sensor_id;sensor_type;location;lat;lon;timestamp;temperature;humidity
20568;DHT22;10442;49.932;11.592;2022-11-14T00:01:28;5.30;74.50
20568;DHT22;10442;49.932;11.592;2022-11-14T00:04:13;5.30;74.70
20568;DHT22;10442;49.932;11.592;2022-11-14T00:06:59;5.40;75.00
20568;DHT22;10442;49.932;11.592;2022-11-14T00:09:45;5.30;74.90
20568;DHT22;10442;49.932;11.592;2022-11-14T00:12:31;5.20;74.90
20568;DHT22;10442;49.932;11.592;2022-11-14T00:15:17;5.20;75.00
20568;DHT22;10442;49.932;11.592;2022-11-14T00:18:03;5.20;75.00
20568;DHT22;10442;49.932;11.592;2022-11-14T00:20:50;5.20;75.00
20568;DHT22;10442;49.932;11.592;2022-11-14T00:23:36;5.20;75.20
20568;DHT22;10442;49.932;11.592;2022-11-14T00:26:23;5.20;75.40
20568;DHT22;10442;49.932;11.592;2022-11-14T00:29:10;5.10;75.40
20568;DHT22;10442;49.932;11.592;2022-11-14T00:31:56;5.10;75.50
20568;DHT22;10442;49.932;11.592;2022-11-14T00:34:42;5.10;75.40
20568;DHT22;10442;49.932;11.592;2022-11-14T00:37:28;5.10;75.30
20568;DHT22;10442;49.932;11.592;2022-11-14T00:40:14;5.10;75.30
20568;DHT22;10442;49.932;11.592;2022-11-14T00:43:01;5.10;75.30
20568;DHT22;10442;49.932;11.592;2022-11-14T00:45:47;5.10;75.30
20568;DHT22;10442;49.932;11.592;2022-11-14T00:48:33;5.00;75.30
20568;DHT22;10442;49.932;11.592;2022-11-14T00:51:19;5.00;75.20
20568;DHT22;10442;49.932;11.592;2022-11-14T00:54:05;5.00;75.20
20568;DHT22;10442;49.932;11.592;2022-11-14T00:56:52;4.90;75.20
20568;DHT22;10442;49.932;11.592;2022-11-14T00:59:38;4.90;75.30
20568;DHT22;10442;49.932;11.592;2022-11-14T01:02:24;4.90;75.60
20568;DHT22;10442;49.932;11.592;2022-11-14T01:05:10;4.90;75.60
20568;DHT22;10442;49.932;11.592;2022-11-14T01:07:55;4.90;75.60
20568;DHT22;10442;49.932;11.592;2022-11-14T01:10:43;4.90;75.60
20568;DHT22;10442;49.932;11.592;2022-11-14T01:13:31;4.80;75.80
20568;DHT22;10442;49.932;11.592;2022-11-14T01:16:17;4.80;76.00
20568;DHT22;10442;49.932;11.592;2022-11-14T01:19:04;4.80;76.10
20568;DHT22;10442;49.932;11.592;2022-11-14T01:21:50;4.80;76.30
20568;DHT22;10442;49.932;11.592;2022-11-14T01:24:36;4.80;76.40
20568;DHT22;10442;49.932;11.592;2022-11-14T01:27:21;4.80;76.40
20568;DHT22;10442;49.932;11.592;2022-11-14T01:30:08;4.80;76.40
20568;DHT22;10442;49.932;11.592;2022-11-14T01:32:54;4.80;76.40
20568;DHT22;10442;49.932;11.592;2022-11-14T01:35:39;4.80;76.30
20568;DHT22;10442;49.932;11.592;2022-11-14T01:38:25;4.80;76.40
20568;DHT22;10442;49.932;11.592;2022-11-14T01:41:13;4.80;76.30
20568;DHT22;10442;49.932;11.592;2022-11-14T01:43:59;4.80;76.20
20568;DHT22;10442;49.932;11.592;2022-11-14T01:46:47;4.80;76.30
20568;DHT22;10442;49.932;11.592;2022-11-14T01:49:42;4.80;76.40
20568;DHT22;10442;49.932;11.592;2022-11-14T01:52:33;4.80;76.70
20568;DHT22;10442;49.932;11.592;2022-11-14T01:55:19;4.70;76.70
20568;DHT22;10442;49.932;11.592;2022-11-14T01:58:05;4.70;76.80
20568;DHT22;10442;49.932;11.592;2022-11-14T02:00:52;4.70;76.80
20568;DHT22;10442;49.932;11.592;2022-11-14T02:03:39;4.70;76.80
20568;DHT22;10442;49.932;11.592;2022-11-14T02:06:28;4.70;76.90
20568;DHT22;10442;49.932;11.592;2022-11-14T02:09:15;4.70;77.00
20568;DHT22;10442;49.932;11.592;2022-11-14T02:12:02;4.70;76.90
20568;DHT22;10442;49.932;11.592;2022-11-14T02:14:51;4.70;76.90
20568;DHT22;10442;49.932;11.592;2022-11-14T02:17:40;4.70;77.00
20568;DHT22;10442;49.932;11.592;2022-11-14T02:20:29;4.70;77.20
20568;DHT22;10442;49.932;11.592;2022-11-14T02:23:26;4.70;77.50
20568;DHT22;10442;49.932;11.592;2022-11-14T02:26:16;4.70;77.70
20568;DHT22;10442;49.932;11.592;2022-11-14T02:29:03;4.70;77.80
20568;DHT22;10442;49.932;11.592;2022-11-14T02:31:49;4.70;78.00
20568;DHT22;10442;49.932;11.592;2022-11-14T02:34:35;4.70;78.50
20568;DHT22;10442;49.932;11.592;2022-11-14T02:37:20;4.70;77.50
20568;DHT22;10442;49.932;11.592;2022-11-14T02:40:07;4.70;77.50
20568;DHT22;10442;49.932;11.592;2022-11-14T02:42:53;4.70;77.50
20568;DHT22;10442;49.932;11.592;2022-11-14T02:45:39;4.70;77.60
20568;DHT22;10442;49.932;11.592;2022-11-14T02:48:25;4.70;77.70
20568;DHT22;10442;49.932;11.592;2022-11-14T02:51:11;4.70;77.70
20568;DHT22;10442;49.932;11.592;2022-11-14T02:53:57;4.70;77.70
20568;DHT22;10442;49.932;11.592;2022-11-14T02:56:43;4.70;77.70
20568;DHT22;10442;49.932;11.592;2022-11-14T02:59:29;4.70;77.50
20568;DHT22;10442;49.932;11.592;2022-11-14T03:02:15;4.70;77.50
20568;DHT22;10442;49.932;11.592;2022-11-14T03:05:01;4.70;77.50
20568;DHT22;10442;49.932;11.592;2022-11-14T03:07:47;4.70;77.50
20568;DHT22;10442;49.932;11.592;2022-11-14T03:10:33;4.60;77.60
20568;DHT22;10442;49.932;11.592;2022-11-14T03:13:19;4.60;77.70
20568;DHT22;10442;49.932;11.592;2022-11-14T03:16:11;4.60;77.70
20568;DHT22;10442;49.932;11.592;2022-11-14T03:18:57;4.60;77.80
20568;DHT22;10442;49.932;11.592;2022-11-14T03:21:43;4.60;77.80
20568;DHT22;10442;49.932;11.592;2022-11-14T03:24:30;4.60;78.00
20568;DHT22;10442;49.932;11.592;2022-11-14T03:27:16;4.60;78.20
20568;DHT22;10442;49.932;11.592;2022-11-14T03:30:02;4.60;79.00
20568;DHT22;10442;49.932;11.592;2022-11-14T03:32:48;4.70;79.90
20568;DHT22;10442;49.932;11.592;2022-11-14T03:35:34;4.80;80.70
20568;DHT22;10442;49.932;11.592;2022-11-14T03:38:20;4.90;80.80
20568;DHT22;10442;49.932;11.592;2022-11-14T03:41:08;5.00;81.20
20568;DHT22;10442;49.932;11.592;2022-11-14T03:43:54;5.10;81.80
20568;DHT22;10442;49.932;11.592;2022-11-14T03:46:40;5.30;82.50
20568;DHT22;10442;49.932;11.592;2022-11-14T03:49:26;5.50;83.40
20568;DHT22;10442;49.932;11.592;2022-11-14T03:52:12;5.60;83.30
20568;DHT22;10442;49.932;11.592;2022-11-14T03:54:57;5.80;83.70
20568;DHT22;10442;49.932;11.592;2022-11-14T03:57:43;5.90;84.30
20568;DHT22;10442;49.932;11.592;2022-11-14T04:00:29;6.10;83.80
20568;DHT22;10442;49.932;11.592;2022-11-14T04:03:16;6.20;83.90
20568;DHT22;10442;49.932;11.592;2022-11-14T04:06:01;6.40;83.40
20568;DHT22;10442;49.932;11.592;2022-11-14T04:08:47;6.50;83.10
20568;DHT22;10442;49.932;11.592;2022-11-14T04:11:33;6.60;83.00
20568;DHT22;10442;49.932;11.592;2022-11-14T04:14:19;6.80;82.60
20568;DHT22;10442;49.932;11.592;2022-11-14T04:17:05;6.90;82.20
20568;DHT22;10442;49.932;11.592;2022-11-14T04:19:50;7.00;82.00
20568;DHT22;10442;49.932;11.592;2022-11-14T04:22:36;7.00;81.80
20568;DHT22;10442;49.932;11.592;2022-11-14T04:25:23;7.10;81.70
20568;DHT22;10442;49.932;11.592;2022-11-14T04:28:09;7.20;81.30
20568;DHT22;10442;49.932;11.592;2022-11-14T04:30:54;7.30;81.00
20568;DHT22;10442;49.932;11.592;2022-11-14T04:33:40;7.40;80.80
20568;DHT22;10442;49.932;11.592;2022-11-14T04:36:26;7.40;80.60
20568;DHT22;10442;49.932;11.592;2022-11-14T04:39:12;7.50;80.50
20568;DHT22;10442;49.932;11.592;2022-11-14T04:41:58;7.50;80.30
20568;DHT22;10442;49.932;11.592;2022-11-14T04:44:43;7.60;80.00
20568;DHT22;10442;49.932;11.592;2022-11-14T04:47:30;7.60;79.80
20568;DHT22;10442;49.932;11.592;2022-11-14T04:50:15;7.60;79.60
20568;DHT22;10442;49.932;11.592;2022-11-14T04:53:03;7.70;79.40
20568;DHT22;10442;49.932;11.592;2022-11-14T04:55:49;7.60;79.30
20568;DHT22;10442;49.932;11.592;2022-11-14T04:58:34;7.70;79.40
20568;DHT22;10442;49.932;11.592;2022-11-14T05:01:20;7.70;79.30
20568;DHT22;10442;49.932;11.592;2022-11-14T05:04:07;7.70;79.30
20568;DHT22;10442;49.932;11.592;2022-11-14T05:06:53;7.80;79.20
20568;DHT22;10442;49.932;11.592;2022-11-14T05:09:39;7.70;79.10
20568;DHT22;10442;49.932;11.592;2022-11-14T05:12:25;7.70;78.90
20568;DHT22;10442;49.932;11.592;2022-11-14T05:15:10;7.80;79.00
20568;DHT22;10442;49.932;11.592;2022-11-14T05:17:57;7.80;78.90
20568;DHT22;10442;49.932;11.592;2022-11-14T05:20:43;7.80;78.90
20568;DHT22;10442;49.932;11.592;2022-11-14T05:23:29;7.80;79.00
20568;DHT22;10442;49.932;11.592;2022-11-14T05:26:16;7.80;78.90
20568;DHT22;10442;49.932;11.592;2022-11-14T05:29:02;7.90;78.90
20568;DHT22;10442;49.932;11.592;2022-11-14T05:31:48;7.90;78.70
20568;DHT22;10442;49.932;11.592;2022-11-14T05:34:34;7.90;78.50
20568;DHT22;10442;49.932;11.592;2022-11-14T05:37:20;7.90;78.30
20568;DHT22;10442;49.932;11.592;2022-11-14T05:40:06;7.90;78.20
20568;DHT22;10442;49.932;11.592;2022-11-14T05:42:54;7.90;78.20
20568;DHT22;10442;49.932;11.592;2022-11-14T05:45:41;7.90;78.20
20568;DHT22;10442;49.932;11.592;2022-11-14T05:48:29;7.90;78.30
20568;DHT22;10442;49.932;11.592;2022-11-14T05:51:15;7.90;78.20
20568;DHT22;10442;49.932;11.592;2022-11-14T05:54:01;7.90;78.10
20568;DHT22;10442;49.932;11.592;2022-11-14T05:56:47;7.90;78.10
20568;DHT22;10442;49.932;11.592;2022-11-14T05:59:33;7.90;78.20
20568;DHT22;10442;49.932;11.592;2022-11-14T06:02:18;7.90;78.20
20568;DHT22;10442;49.932;11.592;2022-11-14T06:05:05;7.90;78.20
20568;DHT22;10442;49.932;11.592;2022-11-14T06:07:58;7.90;78.20
20568;DHT22;10442;49.932;11.592;2022-11-14T06:10:43;7.80;78.20
20568;DHT22;10442;49.932;11.592;2022-11-14T06:13:30;7.90;78.30
20568;DHT22;10442;49.932;11.592;2022-11-14T06:16:18;7.90;78.30
20568;DHT22;10442;49.932;11.592;2022-11-14T06:19:04;7.90;78.30
20568;DHT22;10442;49.932;11.592;2022-11-14T06:21:50;7.90;78.30
20568;DHT22;10442;49.932;11.592;2022-11-14T06:24:36;8.00;78.30
20568;DHT22;10442;49.932;11.592;2022-11-14T06:27:22;8.00;78.20
20568;DHT22;10442;49.932;11.592;2022-11-14T06:30:08;8.00;78.00
20568;DHT22;10442;49.932;11.592;2022-11-14T06:32:57;8.00;77.90
20568;DHT22;10442;49.932;11.592;2022-11-14T06:35:46;8.10;77.80
20568;DHT22;10442;49.932;11.592;2022-11-14T06:38:33;8.10;77.70
20568;DHT22;10442;49.932;11.592;2022-11-14T06:41:20;8.20;77.60
20568;DHT22;10442;49.932;11.592;2022-11-14T06:44:07;8.20;77.50
20568;DHT22;10442;49.932;11.592;2022-11-14T06:46:54;8.20;77.60
20568;DHT22;10442;49.932;11.592;2022-11-14T06:49:41;8.20;77.20
20568;DHT22;10442;49.932;11.592;2022-11-14T06:52:27;8.20;77.20
20568;DHT22;10442;49.932;11.592;2022-11-14T06:55:13;8.20;77.20
20568;DHT22;10442;49.932;11.592;2022-11-14T06:57:59;8.20;77.30
20568;DHT22;10442;49.932;11.592;2022-11-14T07:00:45;8.20;77.30
20568;DHT22;10442;49.932;11.592;2022-11-14T07:03:31;8.20;77.50
20568;DHT22;10442;49.932;11.592;2022-11-14T07:06:25;8.20;77.50
20568;DHT22;10442;49.932;11.592;2022-11-14T07:09:11;8.20;77.50
20568;DHT22;10442;49.932;11.592;2022-11-14T07:11:57;8.30;77.50
20568;DHT22;10442;49.932;11.592;2022-11-14T07:14:43;8.40;77.40
20568;DHT22;10442;49.932;11.592;2022-11-14T07:17:29;8.50;77.50
20568;DHT22;10442;49.932;11.592;2022-11-14T07:20:16;8.60;77.20
20568;DHT22;10442;49.932;11.592;2022-11-14T07:23:05;8.70;77.00
20568;DHT22;10442;49.932;11.592;2022-11-14T07:25:51;8.80;76.70
20568;DHT22;10442;49.932;11.592;2022-11-14T07:28:42;8.90;76.60
20568;DHT22;10442;49.932;11.592;2022-11-14T07:31:33;9.00;75.90
20568;DHT22;10442;49.932;11.592;2022-11-14T07:34:19;9.10;76.00
20568;DHT22;10442;49.932;11.592;2022-11-14T07:37:04;9.30;75.80
20568;DHT22;10442;49.932;11.592;2022-11-14T07:39:51;9.40;75.40
20568;DHT22;10442;49.932;11.592;2022-11-14T07:42:37;9.70;75.20
20568;DHT22;10442;49.932;11.592;2022-11-14T07:45:23;9.80;74.80
20568;DHT22;10442;49.932;11.592;2022-11-14T07:48:09;10.10;74.70
20568;DHT22;10442;49.932;11.592;2022-11-14T07:51:02;10.50;74.50
20568;DHT22;10442;49.932;11.592;2022-11-14T07:53:51;10.90;73.50
20568;DHT22;10442;49.932;11.592;2022-11-14T07:56:40;11.40;72.70
20568;DHT22;10442;49.932;11.592;2022-11-14T07:59:26;11.90;71.90
20568;DHT22;10442;49.932;11.592;2022-11-14T08:02:12;12.40;70.80
20568;DHT22;10442;49.932;11.592;2022-11-14T08:04:59;12.90;68.90
20568;DHT22;10442;49.932;11.592;2022-11-14T08:07:46;13.20;66.60
20568;DHT22;10442;49.932;11.592;2022-11-14T08:10:35;13.40;65.80
20568;DHT22;10442;49.932;11.592;2022-11-14T08:13:21;13.40;65.10
20568;DHT22;10442;49.932;11.592;2022-11-14T08:16:18;13.20;64.30
20568;DHT22;10442;49.932;11.592;2022-11-14T08:19:04;13.10;64.30
20568;DHT22;10442;49.932;11.592;2022-11-14T08:21:50;12.90;64.80
20568;DHT22;10442;49.932;11.592;2022-11-14T08:24:36;12.70;65.00
20568;DHT22;10442;49.932;11.592;2022-11-14T08:27:23;12.50;65.50
20568;DHT22;10442;49.932;11.592;2022-11-14T08:30:10;12.30;65.80
20568;DHT22;10442;49.932;11.592;2022-11-14T08:32:57;12.10;66.10
20568;DHT22;10442;49.932;11.592;2022-11-14T08:35:45;12.00;66.60
20568;DHT22;10442;49.932;11.592;2022-11-14T08:38:33;11.80;67.00
20568;DHT22;10442;49.932;11.592;2022-11-14T08:41:19;11.80;67.40
20568;DHT22;10442;49.932;11.592;2022-11-14T08:44:05;11.70;67.50
20568;DHT22;10442;49.932;11.592;2022-11-14T08:46:51;11.60;67.90
20568;DHT22;10442;49.932;11.592;2022-11-14T08:49:36;11.60;68.20
20568;DHT22;10442;49.932;11.592;2022-11-14T08:52:22;11.60;68.20
20568;DHT22;10442;49.932;11.592;2022-11-14T08:55:08;11.60;68.40
20568;DHT22;10442;49.932;11.592;2022-11-14T08:57:56;11.60;68.40
20568;DHT22;10442;49.932;11.592;2022-11-14T09:00:41;11.60;69.00
20568;DHT22;10442;49.932;11.592;2022-11-14T09:03:28;11.60;69.30
20568;DHT22;10442;49.932;11.592;2022-11-14T09:06:14;11.70;69.20
20568;DHT22;10442;49.932;11.592;2022-11-14T09:09:00;11.80;69.20
20568;DHT22;10442;49.932;11.592;2022-11-14T09:11:46;11.80;69.20
20568;DHT22;10442;49.932;11.592;2022-11-14T09:14:32;12.00;69.00
20568;DHT22;10442;49.932;11.592;2022-11-14T09:17:18;11.90;68.80
20568;DHT22;10442;49.932;11.592;2022-11-14T09:20:04;11.90;68.90
20568;DHT22;10442;49.932;11.592;2022-11-14T09:22:50;12.00;68.90
20568;DHT22;10442;49.932;11.592;2022-11-14T09:25:39;12.00;68.90
20568;DHT22;10442;49.932;11.592;2022-11-14T09:28:25;12.10;68.80
20568;DHT22;10442;49.932;11.592;2022-11-14T09:31:12;12.20;68.60
20568;DHT22;10442;49.932;11.592;2022-11-14T09:33:58;12.30;68.40
20568;DHT22;10442;49.932;11.592;2022-11-14T09:36:44;12.40;68.20
20568;DHT22;10442;49.932;11.592;2022-11-14T09:39:31;12.40;68.00
20568;DHT22;10442;49.932;11.592;2022-11-14T09:45:28;12.60;67.70
20568;DHT22;10442;49.932;11.592;2022-11-14T09:48:19;12.70;67.90
20568;DHT22;10442;49.932;11.592;2022-11-14T09:51:18;12.80;67.90
20568;DHT22;10442;49.932;11.592;2022-11-14T09:57:14;12.90;67.50
20568;DHT22;10442;49.932;11.592;2022-11-14T10:00:02;13.00;67.50
20568;DHT22;10442;49.932;11.592;2022-11-14T10:06:14;13.20;67.10
20568;DHT22;10442;49.932;11.592;2022-11-14T10:13:12;13.30;66.40
20568;DHT22;10442;49.932;11.592;2022-11-14T10:19:17;13.40;65.70
20568;DHT22;10442;49.932;11.592;2022-11-14T10:22:28;13.50;65.20
20568;DHT22;10442;49.932;11.592;2022-11-14T10:31:34;13.60;64.20
20568;DHT22;10442;49.932;11.592;2022-11-14T10:41:01;13.70;64.00
20568;DHT22;10442;49.932;11.592;2022-11-14T10:43:50;13.80;63.50
20568;DHT22;10442;49.932;11.592;2022-11-14T10:46:46;13.80;63.70
20568;DHT22;10442;49.932;11.592;2022-11-14T10:49:34;13.80;63.50
20568;DHT22;10442;49.932;11.592;2022-11-14T10:52:34;13.90;64.10
20568;DHT22;10442;49.932;11.592;2022-11-14T10:55:21;13.90;63.60
20568;DHT22;10442;49.932;11.592;2022-11-14T10:58:29;14.00;62.30
20568;DHT22;10442;49.932;11.592;2022-11-14T11:01:42;14.00;62.80
20568;DHT22;10442;49.932;11.592;2022-11-14T11:04:32;14.10;62.80
20568;DHT22;10442;49.932;11.592;2022-11-14T11:07:22;14.10;62.50
20568;DHT22;10442;49.932;11.592;2022-11-14T11:10:27;14.10;62.60
20568;DHT22;10442;49.932;11.592;2022-11-14T11:13:53;14.10;62.30
20568;DHT22;10442;49.932;11.592;2022-11-14T11:16:40;14.10;63.00
20568;DHT22;10442;49.932;11.592;2022-11-14T11:19:26;14.00;63.10
20568;DHT22;10442;49.932;11.592;2022-11-14T11:22:24;14.10;63.20
20568;DHT22;10442;49.932;11.592;2022-11-14T11:25:26;14.10;63.80
20568;DHT22;10442;49.932;11.592;2022-11-14T11:28:18;14.20;63.50
20568;DHT22;10442;49.932;11.592;2022-11-14T11:31:09;14.20;63.60
20568;DHT22;10442;49.932;11.592;2022-11-14T11:34:02;14.30;63.50
20568;DHT22;10442;49.932;11.592;2022-11-14T11:36:52;14.40;63.30
20568;DHT22;10442;49.932;11.592;2022-11-14T11:39:53;14.40;63.20
20568;DHT22;10442;49.932;11.592;2022-11-14T11:43:12;14.50;62.80
20568;DHT22;10442;49.932;11.592;2022-11-14T11:46:32;14.60;62.70
20568;DHT22;10442;49.932;11.592;2022-11-14T11:49:49;14.60;62.00
20568;DHT22;10442;49.932;11.592;2022-11-14T11:55:47;14.70;62.50
20568;DHT22;10442;49.932;11.592;2022-11-14T11:58:43;14.80;62.50
20568;DHT22;10442;49.932;11.592;2022-11-14T12:01:30;14.90;62.40
20568;DHT22;10442;49.932;11.592;2022-11-14T12:04:16;14.90;62.20
20568;DHT22;10442;49.932;11.592;2022-11-14T12:07:17;15.00;61.60
20568;DHT22;10442;49.932;11.592;2022-11-14T12:10:12;15.10;61.90
20568;DHT22;10442;49.932;11.592;2022-11-14T12:16:13;15.20;62.20
20568;DHT22;10442;49.932;11.592;2022-11-14T12:19:20;15.30;60.80
20568;DHT22;10442;49.932;11.592;2022-11-14T12:28:30;15.40;58.80
20568;DHT22;10442;49.932;11.592;2022-11-14T12:31:20;15.50;58.70
20568;DHT22;10442;49.932;11.592;2022-11-14T12:34:14;15.60;58.70
20568;DHT22;10442;49.932;11.592;2022-11-14T12:40:06;15.60;58.20
20568;DHT22;10442;49.932;11.592;2022-11-14T12:42:55;15.60;58.10
20568;DHT22;10442;49.932;11.592;2022-11-14T12:45:54;15.70;58.90
20568;DHT22;10442;49.932;11.592;2022-11-14T12:48:43;15.70;58.50
20568;DHT22;10442;49.932;11.592;2022-11-14T12:54:41;15.70;57.30
20568;DHT22;10442;49.932;11.592;2022-11-14T12:57:43;15.70;57.90
20568;DHT22;10442;49.932;11.592;2022-11-14T13:03:58;15.70;57.40
20568;DHT22;10442;49.932;11.592;2022-11-14T13:13:08;15.50;57.80
20568;DHT22;10442;49.932;11.592;2022-11-14T13:16:24;15.50;57.90
20568;DHT22;10442;49.932;11.592;2022-11-14T13:19:29;15.40;58.10
20568;DHT22;10442;49.932;11.592;2022-11-14T13:25:27;15.40;58.10
20568;DHT22;10442;49.932;11.592;2022-11-14T13:31:22;15.40;58.50
20568;DHT22;10442;49.932;11.592;2022-11-14T13:47:01;15.20;58.10
20568;DHT22;10442;49.932;11.592;2022-11-14T13:50:10;15.20;58.20
20568;DHT22;10442;49.932;11.592;2022-11-14T13:52:57;15.10;58.10
20568;DHT22;10442;49.932;11.592;2022-11-14T13:55:54;15.10;58.40
20568;DHT22;10442;49.932;11.592;2022-11-14T14:08:01;14.80;59.30
20568;DHT22;10442;49.932;11.592;2022-11-14T14:17:32;14.70;59.60
20568;DHT22;10442;49.932;11.592;2022-11-14T14:20:34;14.70;59.60
20568;DHT22;10442;49.932;11.592;2022-11-14T14:23:38;14.60;59.80
20568;DHT22;10442;49.932;11.592;2022-11-14T14:30:12;14.60;60.00
20568;DHT22;10442;49.932;11.592;2022-11-14T14:35:52;14.50;60.30
20568;DHT22;10442;49.932;11.592;2022-11-14T14:38:38;14.50;60.40
20568;DHT22;10442;49.932;11.592;2022-11-14T14:41:25;14.40;60.70
20568;DHT22;10442;49.932;11.592;2022-11-14T14:44:30;14.40;60.80
20568;DHT22;10442;49.932;11.592;2022-11-14T14:47:38;14.40;60.80
20568;DHT22;10442;49.932;11.592;2022-11-14T14:50:32;14.40;61.20
20568;DHT22;10442;49.932;11.592;2022-11-14T14:53:29;14.30;61.20
20568;DHT22;10442;49.932;11.592;2022-11-14T14:56:20;14.30;61.40
20568;DHT22;10442;49.932;11.592;2022-11-14T14:59:21;14.30;61.60
20568;DHT22;10442;49.932;11.592;2022-11-14T15:02:14;14.20;61.60
20568;DHT22;10442;49.932;11.592;2022-11-14T15:05:01;14.20;61.80
20568;DHT22;10442;49.932;11.592;2022-11-14T15:07:49;14.10;61.90
20568;DHT22;10442;49.932;11.592;2022-11-14T15:10:36;14.10;62.00
20568;DHT22;10442;49.932;11.592;2022-11-14T15:13:23;14.10;62.10
20568;DHT22;10442;49.932;11.592;2022-11-14T15:16:10;14.00;62.00
20568;DHT22;10442;49.932;11.592;2022-11-14T15:18:57;14.00;62.20
20568;DHT22;10442;49.932;11.592;2022-11-14T15:21:43;13.90;62.30
20568;DHT22;10442;49.932;11.592;2022-11-14T15:24:29;13.90;62.50
20568;DHT22;10442;49.932;11.592;2022-11-14T15:27:17;13.80;62.50
20568;DHT22;10442;49.932;11.592;2022-11-14T15:30:06;13.80;62.80
20568;DHT22;10442;49.932;11.592;2022-11-14T15:33:05;13.70;62.80
20568;DHT22;10442;49.932;11.592;2022-11-14T15:36:16;13.70;62.90
20568;DHT22;10442;49.932;11.592;2022-11-14T15:39:04;13.60;63.10
20568;DHT22;10442;49.932;11.592;2022-11-14T15:42:15;13.60;63.20
20568;DHT22;10442;49.932;11.592;2022-11-14T15:45:23;13.50;63.20
20568;DHT22;10442;49.932;11.592;2022-11-14T15:48:14;13.50;63.30
20568;DHT22;10442;49.932;11.592;2022-11-14T15:51:03;13.50;63.30
20568;DHT22;10442;49.932;11.592;2022-11-14T15:53:49;13.40;63.40
20568;DHT22;10442;49.932;11.592;2022-11-14T15:56:36;13.40;63.80
20568;DHT22;10442;49.932;11.592;2022-11-14T15:59:23;13.30;64.00
20568;DHT22;10442;49.932;11.592;2022-11-14T16:05:02;13.20;64.60
20568;DHT22;10442;49.932;11.592;2022-11-14T16:07:48;13.20;65.00
20568;DHT22;10442;49.932;11.592;2022-11-14T16:10:34;13.10;65.00
20568;DHT22;10442;49.932;11.592;2022-11-14T16:13:20;13.10;65.10
20568;DHT22;10442;49.932;11.592;2022-11-14T16:16:07;13.00;65.30
20568;DHT22;10442;49.932;11.592;2022-11-14T16:18:53;13.00;65.50
20568;DHT22;10442;49.932;11.592;2022-11-14T16:21:39;12.90;65.50
20568;DHT22;10442;49.932;11.592;2022-11-14T16:24:26;12.90;65.60
20568;DHT22;10442;49.932;11.592;2022-11-14T16:27:18;12.80;65.80
20568;DHT22;10442;49.932;11.592;2022-11-14T16:30:04;12.70;65.80
20568;DHT22;10442;49.932;11.592;2022-11-14T16:32:51;12.70;65.90
20568;DHT22;10442;49.932;11.592;2022-11-14T16:35:37;12.60;66.10
20568;DHT22;10442;49.932;11.592;2022-11-14T16:38:23;12.50;66.10
20568;DHT22;10442;49.932;11.592;2022-11-14T16:41:12;12.50;66.30
20568;DHT22;10442;49.932;11.592;2022-11-14T16:43:58;12.50;66.60
20568;DHT22;10442;49.932;11.592;2022-11-14T16:46:45;12.40;66.50
20568;DHT22;10442;49.932;11.592;2022-11-14T16:49:31;12.40;66.60
20568;DHT22;10442;49.932;11.592;2022-11-14T16:52:17;12.30;66.60
20568;DHT22;10442;49.932;11.592;2022-11-14T16:55:05;12.20;66.80
20568;DHT22;10442;49.932;11.592;2022-11-14T16:57:51;12.20;67.00
20568;DHT22;10442;49.932;11.592;2022-11-14T17:00:37;12.10;67.20
20568;DHT22;10442;49.932;11.592;2022-11-14T17:03:27;12.10;67.70
20568;DHT22;10442;49.932;11.592;2022-11-14T17:06:13;12.00;67.70
20568;DHT22;10442;49.932;11.592;2022-11-14T17:08:59;12.00;67.90
20568;DHT22;10442;49.932;11.592;2022-11-14T17:11:46;11.90;67.90
20568;DHT22;10442;49.932;11.592;2022-11-14T17:14:31;11.90;68.20
20568;DHT22;10442;49.932;11.592;2022-11-14T17:17:17;11.80;68.40
20568;DHT22;10442;49.932;11.592;2022-11-14T17:20:03;11.80;68.30
20568;DHT22;10442;49.932;11.592;2022-11-14T17:22:50;11.70;68.50
20568;DHT22;10442;49.932;11.592;2022-11-14T17:25:36;11.70;68.60
20568;DHT22;10442;49.932;11.592;2022-11-14T17:28:22;11.70;68.70
20568;DHT22;10442;49.932;11.592;2022-11-14T17:31:09;11.70;68.80
20568;DHT22;10442;49.932;11.592;2022-11-14T17:33:56;11.60;68.80
20568;DHT22;10442;49.932;11.592;2022-11-14T17:36:42;11.60;68.90
20568;DHT22;10442;49.932;11.592;2022-11-14T17:39:28;11.60;69.20
20568;DHT22;10442;49.932;11.592;2022-11-14T17:42:14;11.50;69.20
20568;DHT22;10442;49.932;11.592;2022-11-14T17:45:00;11.50;69.30
20568;DHT22;10442;49.932;11.592;2022-11-14T17:47:46;11.50;69.40
20568;DHT22;10442;49.932;11.592;2022-11-14T17:50:32;11.50;69.60
20568;DHT22;10442;49.932;11.592;2022-11-14T17:53:22;11.40;69.50
20568;DHT22;10442;49.932;11.592;2022-11-14T17:56:12;11.40;69.70
20568;DHT22;10442;49.932;11.592;2022-11-14T17:58:59;11.40;69.70
20568;DHT22;10442;49.932;11.592;2022-11-14T18:01:45;11.30;69.50
20568;DHT22;10442;49.932;11.592;2022-11-14T18:04:31;11.30;69.60
20568;DHT22;10442;49.932;11.592;2022-11-14T18:07:17;11.30;69.60
20568;DHT22;10442;49.932;11.592;2022-11-14T18:10:05;11.30;69.70
20568;DHT22;10442;49.932;11.592;2022-11-14T18:12:52;11.20;69.50
20568;DHT22;10442;49.932;11.592;2022-11-14T18:15:38;11.20;69.50
20568;DHT22;10442;49.932;11.592;2022-11-14T18:18:23;11.20;69.70
20568;DHT22;10442;49.932;11.592;2022-11-14T18:21:16;11.10;69.90
20568;DHT22;10442;49.932;11.592;2022-11-14T18:24:02;11.10;70.10
20568;DHT22;10442;49.932;11.592;2022-11-14T18:26:49;11.10;70.10
20568;DHT22;10442;49.932;11.592;2022-11-14T18:29:35;11.00;70.50
20568;DHT22;10442;49.932;11.592;2022-11-14T18:32:21;11.00;70.80
20568;DHT22;10442;49.932;11.592;2022-11-14T18:35:08;11.00;70.90
20568;DHT22;10442;49.932;11.592;2022-11-14T18:37:54;10.90;71.10
20568;DHT22;10442;49.932;11.592;2022-11-14T18:40:42;10.90;71.10
20568;DHT22;10442;49.932;11.592;2022-11-14T18:43:29;10.90;71.40
20568;DHT22;10442;49.932;11.592;2022-11-14T18:46:22;10.90;71.30
20568;DHT22;10442;49.932;11.592;2022-11-14T18:49:08;10.90;71.30
20568;DHT22;10442;49.932;11.592;2022-11-14T18:51:55;10.80;71.30
20568;DHT22;10442;49.932;11.592;2022-11-14T18:54:41;10.80;71.30
20568;DHT22;10442;49.932;11.592;2022-11-14T18:57:27;10.80;71.20
20568;DHT22;10442;49.932;11.592;2022-11-14T19:00:14;10.80;71.40
20568;DHT22;10442;49.932;11.592;2022-11-14T19:03:00;10.80;71.30
20568;DHT22;10442;49.932;11.592;2022-11-14T19:05:51;10.80;71.30
20568;DHT22;10442;49.932;11.592;2022-11-14T19:08:37;10.80;71.50
20568;DHT22;10442;49.932;11.592;2022-11-14T19:11:24;10.80;71.60
20568;DHT22;10442;49.932;11.592;2022-11-14T19:14:29;10.80;71.70
20568;DHT22;10442;49.932;11.592;2022-11-14T19:17:15;10.80;71.70
20568;DHT22;10442;49.932;11.592;2022-11-14T19:20:06;10.70;71.70